Time;durP1;ratioP1;P1;durP2;ratioP2;P2;SDS_P1;SDS_P2;PMS_P1;PMS_P2;Temp;Humidity;BMP_temperature;BMP_pressure;BME280_temperature;BME280_humidity;BME280_pressure;Samples;Min_cycle;Max_cycle;Signal;HPM_P1;HPM_P2
2022/04/15 00:02:20;;;;;;;27.70;11.75;;;10.60;95.80;;;;;;5032797;28;20348;-51
2022/04/15 00:04:46;;;;;;;19.70;10.30;;;10.60;95.70;;;;;;5032534;28;20021;-50
2022/04/15 00:07:12;;;;;;;18.48;10.32;;;10.70;95.60;;;;;;5032698;28;20053;-50
2022/04/15 00:09:38;;;;;;;15.55;9.40;;;10.60;95.60;;;;;;5046880;28;20116;-50
2022/04/15 00:12:10;;;;;;;18.10;9.65;;;10.70;95.60;;;;;;5032921;28;20105;-51
2022/04/15 00:14:36;;;;;;;17.58;9.00;;;10.70;95.80;;;;;;5028764;28;20033;-50
2022/04/15 00:17:02;;;;;;;30.67;23.48;;;10.70;95.70;;;;;;5032300;28;20045;-50
2022/04/15 00:19:28;;;;;;;17.98;13.85;;;10.70;95.60;;;;;;5030475;28;20095;-50
2022/04/15 00:21:54;;;;;;;17.48;10.63;;;10.70;95.80;;;;;;5032518;28;20471;-50
2022/04/15 00:24:20;;;;;;;16.25;10.75;;;10.70;95.70;;;;;;5032450;28;20029;-50
2022/04/15 00:26:46;;;;;;;16.83;10.45;;;10.70;95.50;;;;;;5032466;28;20079;-50
2022/04/15 00:29:12;;;;;;;18.77;11.75;;;10.80;95.80;;;;;;5032163;28;20120;-50
2022/04/15 00:31:38;;;;;;;21.77;12.23;;;10.60;95.80;;;;;;5031942;28;20548;-51
2022/04/15 00:34:04;;;;;;;17.88;10.43;;;10.00;96.70;;;;;;5032057;28;20104;-50
2022/04/15 00:36:30;;;;;;;19.50;10.63;;;9.70;97.30;;;;;;5029999;28;20037;-50
2022/04/15 00:38:56;;;;;;;18.40;12.25;;;9.50;98.00;;;;;;5031762;28;20090;-50
2022/04/15 00:41:22;;;;;;;19.63;13.07;;;9.50;98.00;;;;;;5032318;28;20033;-50
2022/04/15 00:43:47;;;;;;;21.80;12.60;;;9.70;97.60;;;;;;5032164;28;20033;-51
2022/04/15 00:46:13;;;;;;;19.70;12.32;;;9.80;97.20;;;;;;5046697;28;20037;-50
2022/04/15 00:48:39;;;;;;;21.80;12.80;;;9.70;97.10;;;;;;5031192;28;20481;-51
2022/04/15 00:51:05;;;;;;;20.67;12.88;;;9.60;97.30;;;;;;5035602;28;20090;-49
2022/04/15 00:53:33;;;;;;;17.17;11.25;;;9.60;97.40;;;;;;5036046;28;20025;-51
2022/04/15 00:56:03;;;;;;;18.65;12.45;;;9.60;97.60;;;;;;5036097;28;20033;-50
2022/04/15 00:58:32;;;;;;;18.77;11.20;;;9.80;97.60;;;;;;5036057;28;20037;-50
2022/04/15 01:00:58;;;;;;;25.92;12.93;;;9.90;97.50;;;;;;5035785;28;20032;-51
2022/04/15 01:03:24;;;;;;;30.40;12.70;;;10.00;97.60;;;;;;5036062;28;20021;-50
2022/04/15 01:05:55;;;;;;;22.45;12.70;;;10.00;97.50;;;;;;5035913;28;20471;-51
2022/04/15 01:08:23;;;;;;;20.67;11.93;;;9.60;97.30;;;;;;5035708;28;20045;-50
2022/04/15 01:10:52;;;;;;;19.58;12.20;;;9.40;97.80;;;;;;5048406;28;20120;-50
2022/04/15 01:13:20;;;;;;;19.67;12.75;;;9.50;97.60;;;;;;5035673;28;20033;-50
2022/04/15 01:15:48;;;;;;;18.77;10.85;;;9.70;97.50;;;;;;5035416;28;20108;-52
2022/04/15 01:18:13;;;;;;;16.80;10.23;;;9.80;97.10;;;;;;5035240;28;20064;-49
2022/04/15 01:20:41;;;;;;;15.68;10.35;;;9.80;96.80;;;;;;5035600;28;20022;-50
2022/04/15 01:23:08;;;;;;;15.02;10.30;;;9.80;96.70;;;;;;5033379;28;20057;-51
2022/04/15 01:25:34;;;;;;;18.52;10.95;;;9.90;96.60;;;;;;5033360;28;20064;-50
2022/04/15 01:28:00;;;;;;;16.45;11.50;;;10.00;96.40;;;;;;5035241;28;20033;-51
2022/04/15 01:30:26;;;;;;;18.55;13.10;;;10.10;96.20;;;;;;5035195;28;20025;-51
2022/04/15 01:32:52;;;;;;;19.17;11.48;;;10.20;96.10;;;;;;5035396;28;20431;-50
2022/04/15 01:35:19;;;;;;;15.57;11.35;;;10.20;96.10;;;;;;5033048;28;20055;-50
2022/04/15 01:37:47;;;;;;;14.85;10.32;;;10.30;96.10;;;;;;5033127;28;20484;-49
2022/04/15 01:40:16;;;;;;;17.15;10.57;;;10.40;95.80;;;;;;5052597;28;20044;-50
2022/04/15 01:42:43;;;;;;;15.07;9.93;;;10.40;96.00;;;;;;5052715;28;20032;-50
2022/04/15 01:45:10;;;;;;;16.27;10.23;;;10.40;95.90;;;;;;5052470;28;20492;-52
2022/04/15 01:47:36;;;;;;;14.80;9.43;;;10.40;95.70;;;;;;5052793;28;20508;-50
2022/04/15 01:50:06;;;;;;;15.15;9.50;;;10.40;95.70;;;;;;5019304;28;20119;-51
2022/04/15 01:52:32;;;;;;;16.63;10.32;;;10.40;95.80;;;;;;5035557;28;20075;-51
2022/04/15 01:54:58;;;;;;;21.75;12.63;;;10.30;96.20;;;;;;5019117;28;20029;-51
2022/04/15 01:57:25;;;;;;;17.13;10.98;;;10.00;95.90;;;;;;5052459;28;20035;-51
2022/04/15 01:59:50;;;;;;;21.25;11.63;;;10.10;96.20;;;;;;5052187;28;20044;-51
2022/04/15 02:02:16;;;;;;;18.85;11.27;;;10.20;96.40;;;;;;5052204;28;20025;-50
2022/04/15 02:04:42;;;;;;;12.93;10.20;;;10.00;96.70;;;;;;5052349;28;20020;-50
2022/04/15 02:07:08;;;;;;;13.32;8.93;;;9.60;97.00;;;;;;5052327;28;20443;-51
2022/04/15 02:09:34;;;;;;;15.55;8.68;;;9.30;97.30;;;;;;5035578;28;20036;-50
2022/04/15 02:11:59;;;;;;;10.25;7.05;;;9.00;98.00;;;;;;5037186;28;20049;-51
2022/04/15 02:14:26;;;;;;;17.92;9.85;;;8.90;98.40;;;;;;5034385;28;20124;-51
2022/04/15 02:16:53;;;;;;;16.80;9.68;;;9.20;98.20;;;;;;5049121;28;20029;-50
2022/04/15 02:19:20;;;;;;;22.50;11.13;;;9.30;98.40;;;;;;5032402;28;20116;-50
2022/04/15 02:21:46;;;;;;;13.48;9.82;;;9.20;98.60;;;;;;5034318;28;20053;-50
2022/04/15 02:24:12;;;;;;;15.13;9.98;;;9.20;98.30;;;;;;5034440;28;20459;-50
2022/04/15 02:26:38;;;;;;;18.23;11.10;;;8.90;98.80;;;;;;5034307;28;20057;-50
2022/04/15 02:29:04;;;;;;;17.30;10.70;;;9.10;98.60;;;;;;5034467;28;20057;-50
2022/04/15 02:31:30;;;;;;;17.00;11.43;;;9.30;98.40;;;;;;5034274;28;20380;-50
2022/04/15 02:33:55;;;;;;;18.40;11.95;;;9.40;98.20;;;;;;5034185;28;20022;-50
2022/04/15 02:36:21;;;;;;;16.05;10.15;;;9.20;98.30;;;;;;5034112;28;20028;-51
2022/04/15 02:38:47;;;;;;;20.30;11.38;;;9.20;98.40;;;;;;5033901;28;20021;-50
2022/04/15 02:41:13;;;;;;;21.50;11.60;;;9.20;98.40;;;;;;5034120;28;20511;-50
2022/04/15 02:43:39;;;;;;;21.10;11.25;;;9.30;98.50;;;;;;5033485;28;20026;-51
2022/04/15 02:46:07;;;;;;;32.47;12.05;;;9.40;98.30;;;;;;5034144;28;20022;-50
2022/04/15 02:48:33;;;;;;;26.95;12.77;;;9.50;98.40;;;;;;5048372;28;20034;-50
2022/04/15 02:51:00;;;;;;;18.40;11.10;;;9.50;98.30;;;;;;5033783;28;20029;-51
2022/04/15 02:53:26;;;;;;;17.08;9.57;;;9.50;98.30;;;;;;5033865;28;20023;-50
2022/04/15 02:55:52;;;;;;;13.23;8.60;;;9.50;98.20;;;;;;5033640;28;20025;-50
2022/04/15 02:58:21;;;;;;;11.57;8.00;;;9.30;98.20;;;;;;5033637;28;20495;-50
2022/04/15 03:00:48;;;;;;;13.23;8.20;;;9.30;98.00;;;;;;5031514;28;20117;-51
2022/04/15 03:03:14;;;;;;;13.55;8.63;;;9.20;98.00;;;;;;5033605;28;20022;-49
2022/04/15 03:05:40;;;;;;;14.43;8.18;;;9.30;98.00;;;;;;5048057;28;20029;-50
2022/04/15 03:08:06;;;;;;;10.65;7.60;;;9.40;97.90;;;;;;5033602;28;20036;-50
2022/04/15 03:10:32;;;;;;;10.90;6.82;;;9.40;97.80;;;;;;5048034;28;20104;-50
2022/04/15 03:12:58;;;;;;;11.15;7.60;;;9.40;97.70;;;;;;5032653;28;20025;-51
2022/04/15 03:15:24;;;;;;;9.80;7.25;;;9.30;97.80;;;;;;5033421;28;20033;-51
2022/04/15 03:17:50;;;;;;;14.35;7.55;;;9.30;98.10;;;;;;5047842;28;20041;-50
2022/04/15 03:20:16;;;;;;;12.35;7.25;;;9.30;98.20;;;;;;5033373;28;20381;-51
2022/04/15 03:22:43;;;;;;;15.52;7.82;;;9.30;98.10;;;;;;5033223;28;20021;-51
2022/04/15 03:25:11;;;;;;;22.92;7.60;;;9.20;98.40;;;;;;5033073;28;20029;-51
2022/04/15 03:27:38;;;;;;;10.38;7.13;;;9.30;98.20;;;;;;5031688;28;20377;-51
2022/04/15 03:30:05;;;;;;;12.63;7.13;;;9.30;98.00;;;;;;5032983;28;20095;-51
2022/04/15 03:32:31;;;;;;;13.50;6.80;;;9.30;97.70;;;;;;5033151;28;20059;-50
2022/04/15 03:34:57;;;;;;;14.32;7.35;;;9.50;97.60;;;;;;5032973;28;20087;-50
2022/04/15 03:37:23;;;;;;;12.55;7.18;;;9.50;97.60;;;;;;5032912;28;20022;-50
2022/04/15 03:39:49;;;;;;;9.55;6.90;;;9.40;97.70;;;;;;5031005;28;20022;-50
2022/04/15 03:42:15;;;;;;;15.32;7.22;;;9.40;97.60;;;;;;5047398;28;20035;-51
2022/04/15 03:44:41;;;;;;;14.77;6.88;;;9.40;97.70;;;;;;5033028;28;20029;-50
2022/04/15 03:47:07;;;;;;;12.95;8.18;;;9.30;98.00;;;;;;5032792;28;20046;-50
2022/04/15 03:49:33;;;;;;;16.45;9.27;;;8.80;98.50;;;;;;5030452;28;20029;-50
2022/04/15 03:51:59;;;;;;;15.48;7.70;;;8.50;99.20;;;;;;5030634;28;20037;-50
2022/04/15 03:54:25;;;;;;;22.10;17.85;;;8.30;99.70;;;;;;5047101;28;20037;-51
2022/04/15 03:56:51;;;;;;;17.88;11.43;;;8.10;99.90;;;;;;5030679;28;20033;-50
2022/04/15 03:59:17;;;;;;;64.43;36.30;;;7.80;99.90;;;;;;5032446;28;20022;-50
2022/04/15 04:01:43;;;;;;;18.45;12.35;;;7.60;99.90;;;;;;5032631;28;20064;-50
2022/04/15 04:04:09;;;;;;;19.50;13.82;;;7.70;99.90;;;;;;5032950;28;20101;-51
2022/04/15 04:06:35;;;;;;;27.90;21.13;;;7.70;99.90;;;;;;5032573;28;20160;-50
2022/04/15 04:09:01;;;;;;;19.98;11.07;;;7.60;99.90;;;;;;5030418;28;20514;-50
2022/04/15 04:11:27;;;;;;;61.67;51.10;;;7.50;99.90;;;;;;5032694;28;20040;-50
2022/04/15 04:13:53;;;;;;;29.23;21.30;;;7.50;99.90;;;;;;5032810;28;20022;-50
2022/04/15 04:16:18;;;;;;;12.65;9.52;;;7.40;99.90;;;;;;5032921;28;20335;-51
2022/04/15 04:18:45;;;;;;;108.10;95.40;;;7.30;99.90;;;;;;5032200;28;20053;-50
2022/04/15 04:21:12;;;;;;;46.40;41.40;;;7.40;99.90;;;;;;5032466;28;20034;-50
2022/04/15 04:23:38;;;;;;;18.13;11.82;;;7.70;99.90;;;;;;5033451;28;20045;-51
2022/04/15 04:26:04;;;;;;;23.02;10.27;;;8.00;99.90;;;;;;5036319;28;20061;-50
2022/04/15 04:28:31;;;;;;;28.15;10.95;;;8.30;99.90;;;;;;5035931;28;20029;-50
2022/04/15 04:30:57;;;;;;;62.42;39.50;;;8.50;99.90;;;;;;5036490;28;20488;-50
2022/04/15 04:33:22;;;;;;;70.15;36.22;;;8.60;99.90;;;;;;5035540;28;20022;-50
2022/04/15 04:35:49;;;;;;;55.08;26.80;;;8.70;99.90;;;;;;5033856;28;20449;-50
2022/04/15 04:38:15;;;;;;;33.92;20.63;;;8.70;99.90;;;;;;5036100;28;20439;-50
2022/04/15 04:40:41;;;;;;;26.90;13.07;;;8.80;99.90;;;;;;5000825;28;20047;-51
2022/04/15 04:43:08;;;;;;;20.15;11.23;;;8.80;99.90;;;;;;5034931;28;20418;-50
2022/04/15 04:45:34;;;;;;;24.83;10.48;;;8.90;99.90;;;;;;5034576;28;20066;-50
2022/04/15 04:48:01;;;;;;;21.92;10.23;;;8.90;99.90;;;;;;5036086;28;20383;-50
2022/04/15 04:50:28;;;;;;;18.77;9.82;;;9.00;99.90;;;;;;5032123;28;20064;-50
2022/04/15 04:52:54;;;;;;;19.63;13.25;;;8.90;99.90;;;;;;5035921;28;20026;-51
2022/04/15 04:55:20;;;;;;;17.30;10.90;;;8.70;99.90;;;;;;5035879;28;20405;-50
2022/04/15 04:57:46;;;;;;;21.13;11.82;;;9.00;99.90;;;;;;5034306;28;20507;-50
2022/04/15 05:00:14;;;;;;;28.70;14.93;;;9.10;99.90;;;;;;5032586;28;20113;-51
2022/04/15 05:02:40;;;;;;;27.17;14.57;;;9.30;99.90;;;;;;5029733;28;20029;-50
2022/04/15 05:05:07;;;;;;;26.00;15.50;;;9.50;99.90;;;;;;5013941;28;20026;-50
2022/04/15 05:07:34;;;;;;;27.02;15.73;;;9.60;99.90;;;;;;5013759;28;20053;-50
2022/04/15 05:09:59;;;;;;;33.70;16.38;;;9.70;99.90;;;;;;5013626;28;20033;-50
2022/04/15 05:12:25;;;;;;;32.50;17.65;;;9.80;99.90;;;;;;5013730;28;20042;-50
2022/04/15 05:14:51;;;;;;;28.25;15.05;;;10.00;99.90;;;;;;5013662;28;20109;-50
2022/04/15 05:17:17;;;;;;;26.95;15.82;;;10.20;99.90;;;;;;5012462;28;20042;-50
2022/04/15 05:19:43;;;;;;;28.08;15.02;;;10.40;99.90;;;;;;5012949;28;20466;-50
2022/04/15 05:22:09;;;;;;;27.65;12.98;;;10.50;99.90;;;;;;5010977;28;20095;-50
2022/04/15 05:24:35;;;;;;;29.42;13.55;;;10.50;99.40;;;;;;5026771;28;20161;-51
2022/04/15 05:27:01;;;;;;;22.48;11.27;;;10.60;99.20;;;;;;5012943;28;20053;-51
2022/04/15 05:29:27;;;;;;;15.38;10.20;;;10.80;99.10;;;;;;5012036;28;20547;-51
2022/04/15 05:31:52;;;;;;;17.13;11.20;;;10.90;99.40;;;;;;5011306;28;20025;-52
2022/04/15 05:34:18;;;;;;;22.48;11.55;;;11.00;99.60;;;;;;5027453;28;20037;-51
2022/04/15 05:36:44;;;;;;;17.02;13.10;;;11.10;98.90;;;;;;5047170;28;20044;-52
2022/04/15 05:39:10;;;;;;;19.08;14.50;;;11.20;99.80;;;;;;5035164;28;20021;-50
2022/04/15 05:41:35;;;;;;;21.38;14.30;;;11.30;99.90;;;;;;5049928;28;20120;-49
2022/04/15 05:44:03;;;;;;;24.77;14.68;;;11.40;99.90;;;;;;5015210;28;20433;-49
2022/04/15 05:46:30;;;;;;;34.08;19.00;;;11.30;99.90;;;;;;5034838;28;20119;-49
2022/04/15 05:48:56;;;;;;;32.17;18.63;;;;;;;;;;5034718;28;20038;-50
2022/04/15 05:51:22;;;;;;;27.38;18.70;;;;;;;;;;5034914;28;20032;-50
2022/04/15 05:53:48;;;;;;;26.42;18.10;;;;;;;;;;5031724;28;20037;-49
2022/04/15 05:56:14;;;;;;;24.13;17.23;;;;;;;;;;5030500;28;20709;-51
2022/04/15 05:58:40;;;;;;;30.70;18.00;;;;;;;;;;5035721;28;20037;-49
2022/04/15 06:01:11;;;;;;;34.72;23.50;;;11.70;99.90;;;;;;5035658;28;20026;-49
2022/04/15 06:03:37;;;;;;;34.63;24.60;;;11.70;99.90;;;;;;5035709;28;20128;-49
2022/04/15 06:06:04;;;;;;;39.30;28.17;;;11.80;99.90;;;;;;5035521;28;20033;-49
2022/04/15 06:08:30;;;;;;;33.17;26.95;;;;;;;;;;5035364;28;20057;-50
2022/04/15 06:10:56;;;;;;;39.97;26.20;;;12.30;99.90;;;;;;5029860;28;20017;-49
2022/04/15 06:13:25;;;;;;;33.13;23.38;;;12.20;99.90;;;;;;5032565;28;20025;-49
2022/04/15 06:16:01;;;;;;;48.60;25.60;;;;;;;;;;5035003;28;20087;-50
2022/04/15 06:18:34;;;;;;;34.58;22.25;;;12.80;99.90;;;;;;5034636;28;20085;-50
2022/04/15 06:21:00;;;;;;;28.40;22.02;;;12.80;99.90;;;;;;5015733;28;20056;-50
2022/04/15 06:23:27;;;;;;;33.97;21.75;;;13.00;99.90;;;;;;5015735;28;20087;-50
2022/04/15 06:25:53;;;;;;;31.48;22.55;;;13.20;99.90;;;;;;5023721;28;20080;-50
2022/04/15 06:28:21;;;;;;;35.75;23.50;;;13.40;99.40;;;;;;5032942;28;20045;-50
2022/04/15 06:30:50;;;;;;;35.00;24.20;;;13.50;98.80;;;;;;5035171;28;20038;-50
2022/04/15 06:33:22;;;;;;;30.35;22.45;;;13.70;99.60;;;;;;5035239;28;20028;-50
2022/04/15 06:35:48;;;;;;;34.95;24.88;;;13.80;97.40;;;;;;5049834;28;20063;-50
2022/04/15 06:38:13;;;;;;;34.25;23.55;;;14.00;98.90;;;;;;5035149;28;20083;-50
2022/04/15 06:40:40;;;;;;;34.83;23.98;;;14.10;98.70;;;;;;5016548;28;20049;-50
2022/04/15 06:43:06;;;;;;;34.08;23.83;;;14.40;99.90;;;;;;5034897;28;20097;-50
2022/04/15 06:45:32;;;;;;;32.83;22.17;;;14.50;99.90;;;;;;5049695;28;20056;-50
2022/04/15 06:47:58;;;;;;;34.50;23.45;;;14.70;99.90;;;;;;5033700;28;20477;-50
2022/04/15 06:50:25;;;;;;;33.80;22.58;;;;;;;;;;5034742;28;20028;-50
2022/04/15 06:52:51;;;;;;;33.97;22.92;;;14.80;97.10;;;;;;5034886;28;20029;-51
2022/04/15 06:55:17;;;;;;;33.13;22.67;;;14.90;97.10;;;;;;5034683;28;20087;-49
2022/04/15 06:57:43;;;;;;;29.80;21.65;;;15.00;97.30;;;;;;5034715;28;20033;-50
2022/04/15 07:00:13;;;;;;;28.88;21.98;;;;;;;;;;5034779;28;20522;-49
2022/04/15 07:02:41;;;;;;;28.30;19.90;;;15.10;99.90;;;;;;5032763;28;20034;-49
2022/04/15 07:05:09;;;;;;;29.80;21.20;;;15.30;97.40;;;;;;5034480;28;20033;-50
2022/04/15 07:07:39;;;;;;;30.40;20.55;;;15.30;99.90;;;;;;5032454;28;20053;-50
2022/04/15 07:10:07;;;;;;;25.77;20.55;;;15.20;99.90;;;;;;5034464;28;20033;-50
2022/04/15 07:12:33;;;;;;;33.55;22.92;;;;;;;;;;5015691;28;20125;-49
2022/04/15 07:15:00;;;;;;;36.17;22.08;;;15.50;96.30;;;;;;5034528;28;20389;-50
2022/04/15 07:17:25;;;;;;;28.98;20.27;;;15.70;96.30;;;;;;5034044;28;20041;-50
2022/04/15 07:19:51;;;;;;;35.55;20.38;;;15.70;95.50;;;;;;5034009;28;20033;-50
2022/04/15 07:22:20;;;;;;;29.58;21.30;;;15.90;95.90;;;;;;5032761;28;20032;-51
2022/04/15 07:24:47;;;;;;;29.65;20.85;;;16.10;95.70;;;;;;5031992;28;20044;-50
2022/04/15 07:27:13;;;;;;;29.23;19.92;;;;;;;;;;5029733;28;20033;-50
2022/04/15 07:29:39;;;;;;;31.52;19.25;;;16.50;94.60;;;;;;5033427;28;20116;-51
2022/04/15 07:32:05;;;;;;;24.90;18.30;;;16.70;99.20;;;;;;5050463;28;20087;-47
2022/04/15 07:34:31;;;;;;;28.00;17.85;;;;;;;;;;5048075;28;20088;-52
2022/04/15 07:36:59;;;;;;;26.15;19.77;;;;;;;;;;5046454;28;20040;-55
2022/04/15 07:39:25;;;;;;;26.92;20.05;;;;;;;;;;5049995;28;20065;-52
2022/04/15 07:41:52;;;;;;;21.98;15.48;;;;;;;;;;5050435;28;20040;-51
2022/04/15 07:44:19;;;;;;;17.92;12.50;;;;;;;;;;5000416;28;20028;-52
2022/04/15 07:46:45;;;;;;;25.20;15.18;;;17.80;97.90;;;;;;5050375;28;20032;-54
2022/04/15 07:49:11;;;;;;;22.20;12.82;;;13.80;90.40;;;;;;5050373;28;20036;-51
2022/04/15 07:51:38;;;;;;;21.00;13.43;;;;;;;;;;5050375;28;20563;-52
2022/04/15 07:54:05;;;;;;;23.13;15.77;;;;;;;;;;5050503;28;20036;-52
2022/04/15 07:56:32;;;;;;;26.33;15.43;;;;;;;;;;5046661;28;20033;-52
2022/04/15 07:58:58;;;;;;;16.48;11.18;;;;;;;;;;5049551;28;20025;-54
2022/04/15 08:01:27;;;;;;;24.58;12.25;;;;;;;;;;5050110;28;20032;-54
2022/04/15 08:03:54;;;;;;;15.88;9.80;;;;;;;;;;5034756;28;20037;-53
2022/04/15 08:06:21;;;;;;;16.35;9.45;;;;;;;;;;5031999;28;20032;-53
2022/04/15 08:08:47;;;;;;;14.82;8.95;;;;;;;;;;5032578;28;20092;-56
2022/04/15 08:11:13;;;;;;;16.70;10.55;;;;;;;;;;5030698;28;20021;-50
2022/04/15 08:13:39;;;;;;;16.90;13.13;;;;;;;;;;5032255;28;20080;-51
2022/04/15 08:16:07;;;;;;;21.65;12.57;;;;;;;;;;5031508;28;20103;-51
2022/04/15 08:18:34;;;;;;;19.95;12.50;;;;;;;;;;5032195;28;20060;-51
2022/04/15 08:21:01;;;;;;;17.52;11.55;;;;;;;;;;5030468;28;20488;-49
2022/04/15 08:23:27;;;;;;;19.10;12.05;;;;;;;;;;5032553;28;20029;-48
2022/04/15 08:25:53;;;;;;;20.05;11.02;;;;;;;;;;5032408;28;20037;-48
2022/04/15 08:28:20;;;;;;;16.63;10.32;;;;;;;;;;5032312;28;20030;-50
2022/04/15 08:30:46;;;;;;;13.25;9.98;;;20.60;97.40;;;;;;5032435;28;20017;-51
2022/04/15 08:33:11;;;;;;;13.55;9.75;;;20.80;99.90;;;;;;5030501;28;20488;-51
2022/04/15 08:35:38;;;;;;;18.55;10.63;;;;;;;;;;5032436;28;20033;-51
2022/04/15 08:38:04;;;;;;;17.23;10.90;;;;;;;;;;5030805;28;20034;-50
2022/04/15 08:40:31;;;;;;;17.90;10.85;;;;;;;;;;5030346;28;20532;-51
2022/04/15 08:42:57;;;;;;;13.63;9.68;;;;;;;;;;5030451;28;20098;-50
2022/04/15 08:45:26;;;;;;;12.13;9.00;;;22.00;99.90;;;;;;5032169;28;20025;-51
2022/04/15 08:47:57;;;;;;;13.98;8.93;;;22.10;88.20;;;;;;5031851;28;20112;-49
2022/04/15 08:50:24;;;;;;;12.93;7.85;;;21.80;86.60;;;;;;5031912;28;20029;-50
2022/04/15 08:52:53;;;;;;;19.42;9.30;;;21.70;86.40;;;;;;5031632;28;20025;-52
2022/04/15 08:55:21;;;;;;;14.55;8.73;;;;;;;;;;5031448;28;20021;-50
2022/04/15 08:57:50;;;;;;;15.35;8.63;;;23.20;84.20;;;;;;5031775;28;20465;-49
2022/04/15 09:00:16;;;;;;;17.38;8.48;;;;;;;;;;5029730;28;20030;-49
2022/04/15 09:02:42;;;;;;;14.32;8.40;;;23.40;83.60;;;;;;5041059;28;20025;-50
2022/04/15 09:05:09;;;;;;;18.92;8.40;;;;;;;;;;5062191;28;20076;-51
2022/04/15 09:07:36;;;;;;;17.38;8.20;;;;;;;;;;5044846;28;20060;-51
2022/04/15 09:10:04;;;;;;;15.13;7.50;;;24.20;82.50;;;;;;5043817;28;20040;-51
2022/04/15 09:12:30;;;;;;;18.50;8.15;;;24.60;82.20;;;;;;5051154;28;20045;-51
2022/04/15 09:15:08;;;;;;;9.40;6.93;;;;;;;;;;5055087;28;20024;-50
2022/04/15 09:17:39;;;;;;;7.90;6.07;;;;;;;;;;5055106;28;20103;-52
2022/04/15 09:20:06;;;;;;;9.43;5.93;;;25.60;97.50;;;;;;5049433;28;20056;-50
2022/04/15 09:22:33;;;;;;;13.80;7.05;;;;;;;;;;5052411;28;20064;-49
2022/04/15 09:24:59;;;;;;;8.60;6.53;;;;;;;;;;5052456;28;20044;-51
2022/04/15 09:27:26;;;;;;;15.32;7.93;;;;;;;;;;5052664;28;20033;-50
2022/04/15 09:29:56;;;;;;;13.88;7.22;;;25.80;76.40;;;;;;5052662;28;20032;-50
2022/04/15 09:32:24;;;;;;;11.38;6.90;;;25.70;77.00;;;;;;5043519;28;20029;-51
2022/04/15 09:34:59;;;;;;;11.68;7.15;;;25.90;77.10;;;;;;5032839;28;20037;-50
2022/04/15 09:37:30;;;;;;;11.13;5.50;;;26.10;96.00;;;;;;5032908;28;20137;-48
2022/04/15 09:40:14;;;;;;;16.45;6.22;;;25.60;89.10;;;;;;5030697;28;20042;-50
2022/04/15 09:42:52;;;;;;;12.15;6.53;;;25.70;79.10;;;;;;5032836;28;20025;-50
2022/04/15 09:45:19;;;;;;;16.92;6.20;;;;;;;;;;5031562;28;20033;-52
2022/04/15 09:47:59;;;;;;;13.38;6.43;;;26.40;77.00;;;;;;5032614;28;20205;-51
2022/04/15 09:50:29;;;;;;;9.05;5.00;;;;;;;;;;5032605;28;20428;-50
2022/04/15 09:53:08;;;;;;;10.90;4.72;;;;;;;;;;5032267;28;20060;-49
2022/04/15 09:55:36;;;;;;;11.32;4.72;;;;;;;;;;5031753;28;20119;-50
2022/04/15 09:58:11;;;;;;;10.68;4.80;;;26.70;76.90;;;;;;5032503;28;20044;-50
2022/04/15 10:00:38;;;;;;;6.68;4.10;;;26.90;76.10;;;;;;5034171;28;20072;-51
2022/04/15 10:03:07;;;;;;;10.10;3.90;;;;;;;;;;5037342;28;20051;-50
2022/04/15 10:05:38;;;;;;;13.68;4.07;;;26.70;99.90;;;;;;5053250;28;20029;-52
2022/04/15 10:08:05;;;;;;;24.45;13.13;;;;;;;;;;5069352;28;20120;-50
2022/04/15 10:10:31;;;;;;;64.78;52.80;;;;;;;;;;5038447;28;20036;-50
2022/04/15 10:13:01;;;;;;;7.90;3.88;;;;;;;;;;5071921;28;20047;-50
2022/04/15 10:15:29;;;;;;;6.63;3.60;;;;;;;;;;5071725;28;20044;-51
2022/04/15 10:17:56;;;;;;;7.53;3.53;;;26.80;71.70;;;;;;5071613;28;20375;-51
2022/04/15 10:20:22;;;;;;;9.45;4.03;;;;;;;;;;5068857;28;20128;-51
2022/04/15 10:22:48;;;;;;;15.48;4.80;;;;;;;;;;5071338;28;20117;-52
2022/04/15 10:25:15;;;;;;;9.43;4.43;;;27.00;71.40;;;;;;5071641;28;20483;-50
2022/04/15 10:27:40;;;;;;;7.95;4.00;;;26.70;69.30;;;;;;5071585;28;20039;-51
2022/04/15 10:30:21;;;;;;;8.25;3.90;;;26.70;72.20;;;;;;5037593;28;20032;-51
2022/04/15 10:32:56;;;;;;;8.40;4.20;;;27.00;70.10;;;;;;5061942;28;20472;-58
2022/04/15 10:35:23;;;;;;;7.80;3.47;;;;;;;;;;5044352;28;20542;-53
2022/04/15 10:37:55;;;;;;;9.90;4.20;;;;;;;;;;5065146;28;20083;-56
2022/04/15 10:40:23;;;;;;;11.05;5.95;;;;;;;;;;5070646;28;20052;-54
2022/04/15 10:42:49;;;;;;;8.00;5.15;;;;;;;;;;5067742;28;20036;-52
2022/04/15 10:45:28;;;;;;;8.30;4.30;;;;;;;;;;5067569;28;20505;-59
2022/04/15 10:48:00;;;;;;;11.82;5.22;;;27.20;96.90;;;;;;5070350;28;20036;-56
2022/04/15 10:50:28;;;;;;;14.88;5.25;;;27.60;90.90;;;;;;5045860;28;20054;-56
2022/04/15 10:53:15;;;;;;;10.20;5.15;;;27.60;80.30;;;;;;5052925;28;20480;-54
2022/04/15 10:55:49;;;;;;;9.25;4.57;;;27.10;69.80;;;;;;5053130;28;20025;-53
2022/04/15 10:58:16;;;;;;;9.25;4.80;;;27.30;70.70;;;;;;5052623;28;20024;-56
2022/04/15 11:03:31;;;;;;;9.65;4.22;;;27.50;71.70;;;;;;5046746;28;20060;-62
2022/04/15 11:05:59;;;;;;;14.43;4.82;;;27.40;70.60;;;;;;5051705;28;20065;-60
2022/04/15 11:08:43;;;;;;;10.55;4.65;;;27.60;68.40;;;;;;5050940;28;20051;-56
2022/04/15 11:11:09;;;;;;;11.02;4.68;;;27.30;68.20;;;;;;5052213;28;20029;-55
2022/04/15 11:13:40;;;;;;;11.93;4.80;;;27.70;68.20;;;;;;5051612;28;20067;-62
2022/04/15 11:16:16;;;;;;;7.75;4.00;;;27.80;67.20;;;;;;5052323;28;20032;-54
2022/04/15 11:18:55;;;;;;;10.23;4.47;;;27.50;67.60;;;;;;5043938;28;20519;-55
2022/04/15 11:21:22;;;;;;;7.93;4.10;;;;;;;;;;5032466;28;20029;-56
2022/04/15 11:23:52;;;;;;;5.25;3.60;;;27.80;96.90;;;;;;5029979;28;20049;-55
2022/04/15 11:26:19;;;;;;;9.02;4.18;;;28.10;90.80;;;;;;5047737;28;20048;-53
2022/04/15 11:28:46;;;;;;;11.18;3.80;;;;;;;;;;5030815;28;20041;-56
2022/04/15 11:31:38;;;;;;;13.80;4.57;;;;;;;;;;5032771;28;20029;-53
2022/04/15 11:34:07;;;;;;;4.93;3.63;;;;;;;;;;5029391;28;20037;-59
2022/04/15 11:36:40;;;;;;;13.88;3.65;;;;;;;;;;5031854;28;20404;-56
2022/04/15 11:39:07;;;;;;;7.65;3.97;;;;;;;;;;5033095;28;20033;-62
2022/04/15 11:41:34;;;;;;;9.05;3.80;;;;;;;;;;5047716;28;20042;-58
2022/04/15 11:44:00;;;;;;;6.32;3.58;;;29.00;91.70;;;;;;5045598;28;20041;-51
2022/04/15 11:46:55;;;;;;;8.93;3.97;;;28.40;79.90;;;;;;5044801;28;20511;-51
2022/04/15 11:49:23;;;;;;;8.32;3.90;;;28.80;81.90;;;;;;5025634;28;20428;-52
2022/04/15 11:51:51;;;;;;;151.55;132.45;;;28.50;82.90;;;;;;5024879;28;20433;-51
2022/04/15 11:54:20;;;;;;;14.68;4.80;;;28.80;75.40;;;;;;4997266;28;20393;-52
2022/04/15 11:56:46;;;;;;;293.42;269.38;;;28.50;72.40;;;;;;5029094;28;20080;-52
2022/04/15 11:59:12;;;;;;;253.30;231.63;;;28.40;78.70;;;;;;4995737;28;20480;-52
2022/04/15 12:01:43;;;;;;;383.98;349.05;;;28.10;69.20;;;;;;5027019;28;20033;-53
2022/04/15 12:04:09;;;;;;;16.90;9.23;;;28.40;81.70;;;;;;5007031;28;20068;-52
2022/04/15 12:06:40;;;;;;;7.82;3.85;;;28.40;80.90;;;;;;5029854;28;20061;-53
2022/04/15 12:09:10;;;;;;;21.00;12.18;;;28.40;80.40;;;;;;5030486;28;20041;-52
2022/04/15 12:11:38;;;;;;;30.50;22.98;;;28.20;79.30;;;;;;4997322;28;20037;-52
2022/04/15 12:14:06;;;;;;;28.75;19.00;;;28.10;77.50;;;;;;5030301;28;20041;-52
2022/04/15 12:16:33;;;;;;;328.10;299.77;;;;;;;;;;5030036;28;20049;-52
2022/04/15 12:19:00;;;;;;;570.90;525.83;;;28.20;97.00;;;;;;5028313;28;20049;-51
2022/04/15 12:21:30;;;;;;;1225.13;999.90;;;28.80;68.10;;;;;;4995120;28;20095;-52
2022/04/15 12:24:08;;;;;;;442.88;408.98;;;28.70;84.60;;;;;;5029468;28;20040;-52
2022/04/15 12:27:00;;;;;;;5.47;3.10;;;28.70;85.80;;;;;;5029742;28;20424;-48
2022/04/15 12:32:21;;;;;;;8.30;3.65;;;28.60;82.50;;;;;;5033009;28;20496;-57
2022/04/15 12:34:48;;;;;;;12.70;4.38;;;;;;;;;;5033384;28;20033;-55
2022/04/15 12:37:36;;;;;;;8.80;5.13;;;29.00;72.30;;;;;;5033233;28;20079;-53
2022/04/15 12:40:19;;;;;;;10.30;3.97;;;28.80;67.50;;;;;;5033358;28;20048;-55
2022/04/15 12:42:47;;;;;;;8.60;3.42;;;;;;;;;;5032669;28;20030;-56
2022/04/15 12:45:17;;;;;;;5.65;3.25;;;28.40;82.80;;;;;;5033134;28;20033;-57
2022/04/15 12:47:47;;;;;;;7.45;3.50;;;28.40;72.90;;;;;;5017591;28;20124;-58
2022/04/15 12:50:35;;;;;;;6.63;3.75;;;28.80;80.20;;;;;;5034125;28;20041;-58
2022/04/15 12:53:03;;;;;;;5.30;3.20;;;;;;;;;;5034137;28;20049;-53
2022/04/15 12:55:35;;;;;;;10.40;3.75;;;;;;;;;;5033570;28;20033;-55
2022/04/15 12:58:17;;;;;;;5.47;3.22;;;;;;;;;;5031279;28;20041;-55
2022/04/15 13:00:43;;;;;;;5.45;3.45;;;;;;;;;;5033269;28;20048;-57
2022/04/15 13:03:09;;;;;;;27.67;14.40;;;;;;;;;;5016578;28;20136;-56
2022/04/15 13:05:36;;;;;;;7.90;3.50;;;;;;;;;;5033454;28;20104;-59
2022/04/15 13:08:02;;;;;;;10.90;5.72;;;;;;;;;;5033261;28;20076;-56
2022/04/15 13:10:28;;;;;;;7.10;3.45;;;;;;;;;;5033690;28;20112;-55